sensor_id;sensor_type;location;lat;lon;timestamp;P1;durP1;ratioP1;P2;durP2;ratioP2
35552;SDS011;21656;46.054;13.614;2022-09-09T00:04:42;4.20;;;2.38;;
35552;SDS011;21656;46.054;13.614;2022-09-09T00:15:24;3.47;;;1.25;;
35552;SDS011;21656;46.054;13.614;2022-09-09T00:21:04;2.90;;;1.58;;
35552;SDS011;21656;46.054;13.614;2022-09-09T00:23:39;5.32;;;1.40;;
35552;SDS011;21656;46.054;13.614;2022-09-09T00:28:59;5.57;;;1.52;;
35552;SDS011;21656;46.054;13.614;2022-09-09T00:31:30;4.38;;;1.25;;
35552;SDS011;21656;46.054;13.614;2022-09-09T00:34:05;4.30;;;1.25;;
35552;SDS011;21656;46.054;13.614;2022-09-09T00:36:38;3.85;;;1.55;;
35552;SDS011;21656;46.054;13.614;2022-09-09T00:39:04;3.20;;;1.42;;
35552;SDS011;21656;46.054;13.614;2022-09-09T00:47:17;4.20;;;1.58;;
35552;SDS011;21656;46.054;13.614;2022-09-09T00:52:59;3.58;;;1.63;;
35552;SDS011;21656;46.054;13.614;2022-09-09T00:58:11;3.80;;;1.67;;
35552;SDS011;21656;46.054;13.614;2022-09-09T01:11:22;4.38;;;1.55;;
35552;SDS011;21656;46.054;13.614;2022-09-09T01:16:20;4.05;;;1.63;;
35552;SDS011;21656;46.054;13.614;2022-09-09T01:18:48;6.72;;;1.73;;
35552;SDS011;21656;46.054;13.614;2022-09-09T01:24:22;3.20;;;1.45;;
35552;SDS011;21656;46.054;13.614;2022-09-09T01:26:52;10.98;;;1.95;;
35552;SDS011;21656;46.054;13.614;2022-09-09T01:29:22;6.70;;;1.42;;
35552;SDS011;21656;46.054;13.614;2022-09-09T01:31:55;3.65;;;1.75;;
35552;SDS011;21656;46.054;13.614;2022-09-09T01:34:26;2.60;;;1.58;;
35552;SDS011;21656;46.054;13.614;2022-09-09T01:37:01;4.72;;;1.48;;
35552;SDS011;21656;46.054;13.614;2022-09-09T01:39:30;10.95;;;3.35;;
35552;SDS011;21656;46.054;13.614;2022-09-09T01:41:57;7.13;;;1.70;;
35552;SDS011;21656;46.054;13.614;2022-09-09T01:44:23;4.53;;;1.77;;
35552;SDS011;21656;46.054;13.614;2022-09-09T01:46:50;11.77;;;1.73;;
35552;SDS011;21656;46.054;13.614;2022-09-09T01:49:16;6.43;;;1.77;;
35552;SDS011;21656;46.054;13.614;2022-09-09T01:51:43;2.88;;;1.48;;
35552;SDS011;21656;46.054;13.614;2022-09-09T01:54:11;9.57;;;1.50;;
35552;SDS011;21656;46.054;13.614;2022-09-09T01:56:48;5.90;;;1.48;;
35552;SDS011;21656;46.054;13.614;2022-09-09T01:59:29;4.03;;;1.50;;
35552;SDS011;21656;46.054;13.614;2022-09-09T02:04:26;6.65;;;1.65;;
35552;SDS011;21656;46.054;13.614;2022-09-09T02:07:01;3.97;;;1.73;;
35552;SDS011;21656;46.054;13.614;2022-09-09T02:09:26;8.80;;;2.92;;
35552;SDS011;21656;46.054;13.614;2022-09-09T02:12:13;6.28;;;1.98;;
35552;SDS011;21656;46.054;13.614;2022-09-09T02:14:45;5.15;;;1.98;;
35552;SDS011;21656;46.054;13.614;2022-09-09T02:17:16;8.73;;;1.57;;
35552;SDS011;21656;46.054;13.614;2022-09-09T02:19:55;6.78;;;1.80;;
35552;SDS011;21656;46.054;13.614;2022-09-09T02:22:27;2.92;;;1.58;;
35552;SDS011;21656;46.054;13.614;2022-09-09T02:24:55;10.70;;;1.60;;
35552;SDS011;21656;46.054;13.614;2022-09-09T02:27:24;6.30;;;1.60;;
35552;SDS011;21656;46.054;13.614;2022-09-09T02:29:49;8.75;;;2.10;;
35552;SDS011;21656;46.054;13.614;2022-09-09T02:32:19;4.95;;;1.77;;
35552;SDS011;21656;46.054;13.614;2022-09-09T02:34:48;2.97;;;1.95;;
35552;SDS011;21656;46.054;13.614;2022-09-09T02:37:21;2.35;;;1.40;;
35552;SDS011;21656;46.054;13.614;2022-09-09T02:39:50;7.30;;;1.92;;
35552;SDS011;21656;46.054;13.614;2022-09-09T02:42:16;6.45;;;1.70;;
35552;SDS011;21656;46.054;13.614;2022-09-09T02:44:41;3.95;;;1.80;;
35552;SDS011;21656;46.054;13.614;2022-09-09T02:50:06;8.00;;;1.92;;
35552;SDS011;21656;46.054;13.614;2022-09-09T02:55:54;4.93;;;2.13;;
35552;SDS011;21656;46.054;13.614;2022-09-09T02:58:22;6.20;;;2.33;;
35552;SDS011;21656;46.054;13.614;2022-09-09T03:00:49;8.88;;;2.15;;
35552;SDS011;21656;46.054;13.614;2022-09-09T03:03:16;4.72;;;2.10;;
35552;SDS011;21656;46.054;13.614;2022-09-09T03:05:44;8.90;;;1.85;;
35552;SDS011;21656;46.054;13.614;2022-09-09T03:08:10;6.65;;;2.10;;
35552;SDS011;21656;46.054;13.614;2022-09-09T03:10:38;17.25;;;3.92;;
35552;SDS011;21656;46.054;13.614;2022-09-09T03:13:04;9.50;;;1.85;;
35552;SDS011;21656;46.054;13.614;2022-09-09T03:15:30;3.65;;;2.17;;
35552;SDS011;21656;46.054;13.614;2022-09-09T03:17:57;7.80;;;2.00;;
35552;SDS011;21656;46.054;13.614;2022-09-09T03:20:25;5.65;;;1.98;;
35552;SDS011;21656;46.054;13.614;2022-09-09T03:22:53;7.85;;;2.10;;
35552;SDS011;21656;46.054;13.614;2022-09-09T03:25:19;5.35;;;3.00;;
35552;SDS011;21656;46.054;13.614;2022-09-09T03:27:45;7.63;;;2.55;;
35552;SDS011;21656;46.054;13.614;2022-09-09T03:30:11;6.47;;;2.00;;
35552;SDS011;21656;46.054;13.614;2022-09-09T03:32:36;5.43;;;2.35;;
35552;SDS011;21656;46.054;13.614;2022-09-09T03:35:02;3.08;;;1.95;;
35552;SDS011;21656;46.054;13.614;2022-09-09T03:37:28;7.35;;;2.30;;
35552;SDS011;21656;46.054;13.614;2022-09-09T03:39:53;9.60;;;2.33;;
35552;SDS011;21656;46.054;13.614;2022-09-09T03:42:22;8.52;;;2.03;;
35552;SDS011;21656;46.054;13.614;2022-09-09T03:44:47;9.10;;;2.50;;
35552;SDS011;21656;46.054;13.614;2022-09-09T03:47:15;3.15;;;1.88;;
35552;SDS011;21656;46.054;13.614;2022-09-09T03:49:41;6.40;;;2.20;;
35552;SDS011;21656;46.054;13.614;2022-09-09T03:52:08;6.07;;;2.63;;
35552;SDS011;21656;46.054;13.614;2022-09-09T03:54:33;4.18;;;2.28;;
35552;SDS011;21656;46.054;13.614;2022-09-09T03:57:00;5.13;;;2.65;;
35552;SDS011;21656;46.054;13.614;2022-09-09T03:59:25;5.13;;;2.08;;
35552;SDS011;21656;46.054;13.614;2022-09-09T04:01:51;8.18;;;2.72;;
35552;SDS011;21656;46.054;13.614;2022-09-09T04:04:17;6.00;;;2.42;;
35552;SDS011;21656;46.054;13.614;2022-09-09T04:06:42;5.80;;;2.72;;
35552;SDS011;21656;46.054;13.614;2022-09-09T04:09:07;5.80;;;2.40;;
35552;SDS011;21656;46.054;13.614;2022-09-09T04:11:33;7.30;;;3.10;;
35552;SDS011;21656;46.054;13.614;2022-09-09T04:13:58;2.90;;;2.28;;
35552;SDS011;21656;46.054;13.614;2022-09-09T04:16:24;3.53;;;2.38;;
35552;SDS011;21656;46.054;13.614;2022-09-09T04:18:49;4.93;;;2.33;;
35552;SDS011;21656;46.054;13.614;2022-09-09T04:21:15;13.52;;;2.45;;
35552;SDS011;21656;46.054;13.614;2022-09-09T04:23:41;9.75;;;2.70;;
35552;SDS011;21656;46.054;13.614;2022-09-09T04:26:06;4.40;;;2.38;;
35552;SDS011;21656;46.054;13.614;2022-09-09T04:28:33;8.27;;;2.65;;
35552;SDS011;21656;46.054;13.614;2022-09-09T04:31:04;6.90;;;2.50;;
35552;SDS011;21656;46.054;13.614;2022-09-09T04:33:34;7.43;;;2.72;;
35552;SDS011;21656;46.054;13.614;2022-09-09T04:36:00;5.28;;;2.42;;
35552;SDS011;21656;46.054;13.614;2022-09-09T04:38:25;10.68;;;2.78;;
35552;SDS011;21656;46.054;13.614;2022-09-09T04:40:51;6.07;;;2.60;;
35552;SDS011;21656;46.054;13.614;2022-09-09T04:43:19;5.30;;;2.78;;
35552;SDS011;21656;46.054;13.614;2022-09-09T04:45:48;3.40;;;2.47;;
35552;SDS011;21656;46.054;13.614;2022-09-09T04:48:16;6.20;;;2.53;;
35552;SDS011;21656;46.054;13.614;2022-09-09T04:50:41;5.10;;;2.40;;
35552;SDS011;21656;46.054;13.614;2022-09-09T04:53:07;3.85;;;2.78;;
35552;SDS011;21656;46.054;13.614;2022-09-09T04:55:33;4.65;;;2.70;;
35552;SDS011;21656;46.054;13.614;2022-09-09T04:58:03;8.15;;;2.53;;
35552;SDS011;21656;46.054;13.614;2022-09-09T05:00:30;7.65;;;2.83;;
35552;SDS011;21656;46.054;13.614;2022-09-09T05:02:55;3.50;;;2.25;;
35552;SDS011;21656;46.054;13.614;2022-09-09T05:05:21;4.53;;;2.38;;
35552;SDS011;21656;46.054;13.614;2022-09-09T05:07:47;5.15;;;2.75;;
35552;SDS011;21656;46.054;13.614;2022-09-09T05:10:12;11.50;;;2.72;;
35552;SDS011;21656;46.054;13.614;2022-09-09T05:12:39;5.78;;;2.53;;
35552;SDS011;21656;46.054;13.614;2022-09-09T05:15:05;8.73;;;3.13;;
35552;SDS011;21656;46.054;13.614;2022-09-09T05:17:30;4.55;;;3.08;;
35552;SDS011;21656;46.054;13.614;2022-09-09T05:19:56;5.32;;;3.05;;
35552;SDS011;21656;46.054;13.614;2022-09-09T05:22:21;4.28;;;2.78;;
35552;SDS011;21656;46.054;13.614;2022-09-09T05:24:49;5.97;;;3.35;;
35552;SDS011;21656;46.054;13.614;2022-09-09T05:27:16;6.82;;;2.90;;
35552;SDS011;21656;46.054;13.614;2022-09-09T05:29:44;8.57;;;3.70;;
35552;SDS011;21656;46.054;13.614;2022-09-09T05:32:09;8.85;;;3.45;;
35552;SDS011;21656;46.054;13.614;2022-09-09T05:34:35;8.60;;;3.17;;
35552;SDS011;21656;46.054;13.614;2022-09-09T05:37:02;8.23;;;3.83;;
35552;SDS011;21656;46.054;13.614;2022-09-09T05:39:27;5.50;;;3.33;;
35552;SDS011;21656;46.054;13.614;2022-09-09T05:41:52;7.05;;;3.63;;
35552;SDS011;21656;46.054;13.614;2022-09-09T05:44:18;8.85;;;3.40;;
35552;SDS011;21656;46.054;13.614;2022-09-09T05:46:44;9.60;;;3.85;;
35552;SDS011;21656;46.054;13.614;2022-09-09T05:49:09;5.95;;;3.50;;
35552;SDS011;21656;46.054;13.614;2022-09-09T05:51:35;6.93;;;3.78;;
35552;SDS011;21656;46.054;13.614;2022-09-09T05:54:00;7.40;;;3.63;;
35552;SDS011;21656;46.054;13.614;2022-09-09T05:56:27;4.75;;;3.40;;
35552;SDS011;21656;46.054;13.614;2022-09-09T05:58:54;4.75;;;3.65;;
35552;SDS011;21656;46.054;13.614;2022-09-09T06:01:24;4.10;;;3.30;;
35552;SDS011;21656;46.054;13.614;2022-09-09T06:03:51;7.20;;;3.25;;
35552;SDS011;21656;46.054;13.614;2022-09-09T06:06:18;10.57;;;4.35;;
35552;SDS011;21656;46.054;13.614;2022-09-09T06:08:48;7.32;;;4.25;;
35552;SDS011;21656;46.054;13.614;2022-09-09T06:13:43;7.25;;;4.00;;
35552;SDS011;21656;46.054;13.614;2022-09-09T06:16:09;8.57;;;3.63;;
35552;SDS011;21656;46.054;13.614;2022-09-09T06:18:36;4.60;;;3.20;;
35552;SDS011;21656;46.054;13.614;2022-09-09T06:21:03;10.95;;;4.95;;
35552;SDS011;21656;46.054;13.614;2022-09-09T06:23:31;9.07;;;5.22;;
35552;SDS011;21656;46.054;13.614;2022-09-09T06:26:05;7.80;;;4.97;;
35552;SDS011;21656;46.054;13.614;2022-09-09T06:28:37;6.13;;;3.92;;
35552;SDS011;21656;46.054;13.614;2022-09-09T06:31:03;6.10;;;3.50;;
35552;SDS011;21656;46.054;13.614;2022-09-09T06:33:37;5.95;;;3.20;;
35552;SDS011;21656;46.054;13.614;2022-09-09T06:36:07;5.72;;;3.28;;
35552;SDS011;21656;46.054;13.614;2022-09-09T06:38:37;6.88;;;3.65;;
35552;SDS011;21656;46.054;13.614;2022-09-09T06:41:02;5.25;;;3.25;;
35552;SDS011;21656;46.054;13.614;2022-09-09T06:43:28;4.65;;;3.15;;
35552;SDS011;21656;46.054;13.614;2022-09-09T06:48:30;11.80;;;4.47;;
35552;SDS011;21656;46.054;13.614;2022-09-09T06:51:03;4.72;;;3.45;;
35552;SDS011;21656;46.054;13.614;2022-09-09T06:53:30;8.02;;;4.18;;
35552;SDS011;21656;46.054;13.614;2022-09-09T06:55:59;5.53;;;3.55;;
35552;SDS011;21656;46.054;13.614;2022-09-09T06:58:42;7.78;;;4.25;;
35552;SDS011;21656;46.054;13.614;2022-09-09T07:01:12;7.88;;;4.10;;
35552;SDS011;21656;46.054;13.614;2022-09-09T07:03:39;5.88;;;3.70;;
35552;SDS011;21656;46.054;13.614;2022-09-09T07:06:05;6.95;;;3.75;;
35552;SDS011;21656;46.054;13.614;2022-09-09T07:11:04;9.20;;;4.13;;
35552;SDS011;21656;46.054;13.614;2022-09-09T07:13:31;7.60;;;4.30;;
35552;SDS011;21656;46.054;13.614;2022-09-09T07:16:07;6.88;;;4.40;;
35552;SDS011;21656;46.054;13.614;2022-09-09T07:18:34;12.48;;;5.28;;
35552;SDS011;21656;46.054;13.614;2022-09-09T07:21:00;7.45;;;4.72;;
35552;SDS011;21656;46.054;13.614;2022-09-09T07:23:27;8.30;;;5.10;;
35552;SDS011;21656;46.054;13.614;2022-09-09T07:25:53;9.93;;;5.05;;
35552;SDS011;21656;46.054;13.614;2022-09-09T07:28:21;11.23;;;4.55;;
35552;SDS011;21656;46.054;13.614;2022-09-09T07:30:57;8.38;;;4.60;;
35552;SDS011;21656;46.054;13.614;2022-09-09T07:33:25;6.70;;;4.43;;
35552;SDS011;21656;46.054;13.614;2022-09-09T07:35:51;9.02;;;4.25;;
35552;SDS011;21656;46.054;13.614;2022-09-09T07:38:18;11.13;;;4.38;;
35552;SDS011;21656;46.054;13.614;2022-09-09T07:40:44;7.13;;;4.40;;
35552;SDS011;21656;46.054;13.614;2022-09-09T07:43:10;9.10;;;4.00;;
35552;SDS011;21656;46.054;13.614;2022-09-09T07:45:36;8.05;;;4.13;;
35552;SDS011;21656;46.054;13.614;2022-09-09T07:48:02;5.95;;;4.50;;
35552;SDS011;21656;46.054;13.614;2022-09-09T07:50:28;6.10;;;4.65;;
35552;SDS011;21656;46.054;13.614;2022-09-09T07:52:53;9.85;;;4.45;;
35552;SDS011;21656;46.054;13.614;2022-09-09T07:55:20;8.13;;;4.30;;
35552;SDS011;21656;46.054;13.614;2022-09-09T07:57:46;7.85;;;4.15;;
35552;SDS011;21656;46.054;13.614;2022-09-09T08:00:12;5.78;;;4.10;;
35552;SDS011;21656;46.054;13.614;2022-09-09T08:02:39;7.22;;;4.40;;
35552;SDS011;21656;46.054;13.614;2022-09-09T08:05:05;5.90;;;4.10;;
35552;SDS011;21656;46.054;13.614;2022-09-09T08:07:31;8.27;;;3.80;;
35552;SDS011;21656;46.054;13.614;2022-09-09T08:09:56;5.53;;;4.03;;
35552;SDS011;21656;46.054;13.614;2022-09-09T08:12:22;5.75;;;3.97;;
35552;SDS011;21656;46.054;13.614;2022-09-09T08:14:48;6.85;;;3.75;;
35552;SDS011;21656;46.054;13.614;2022-09-09T08:17:13;6.75;;;3.90;;
35552;SDS011;21656;46.054;13.614;2022-09-09T08:19:39;4.85;;;3.78;;
35552;SDS011;21656;46.054;13.614;2022-09-09T08:22:04;5.35;;;3.45;;
35552;SDS011;21656;46.054;13.614;2022-09-09T08:24:30;6.47;;;3.65;;
35552;SDS011;21656;46.054;13.614;2022-09-09T08:26:55;8.40;;;3.40;;
35552;SDS011;21656;46.054;13.614;2022-09-09T08:29:21;8.55;;;3.80;;
35552;SDS011;21656;46.054;13.614;2022-09-09T08:31:49;6.15;;;3.25;;
35552;SDS011;21656;46.054;13.614;2022-09-09T08:34:16;5.55;;;4.00;;
35552;SDS011;21656;46.054;13.614;2022-09-09T08:36:45;6.25;;;3.75;;
35552;SDS011;21656;46.054;13.614;2022-09-09T08:39:11;6.60;;;3.38;;
35552;SDS011;21656;46.054;13.614;2022-09-09T08:52:08;7.72;;;4.28;;
35552;SDS011;21656;46.054;13.614;2022-09-09T08:54:40;6.32;;;3.75;;
35552;SDS011;21656;46.054;13.614;2022-09-09T08:57:07;4.45;;;3.67;;
35552;SDS011;21656;46.054;13.614;2022-09-09T08:59:38;5.57;;;3.40;;
35552;SDS011;21656;46.054;13.614;2022-09-09T09:07:38;6.53;;;3.58;;
35552;SDS011;21656;46.054;13.614;2022-09-09T09:13:18;5.38;;;3.03;;
35552;SDS011;21656;46.054;13.614;2022-09-09T09:15:52;6.72;;;3.28;;
35552;SDS011;21656;46.054;13.614;2022-09-09T09:18:21;5.30;;;2.90;;
35552;SDS011;21656;46.054;13.614;2022-09-09T09:23:26;9.95;;;3.35;;
35552;SDS011;21656;46.054;13.614;2022-09-09T09:26:01;4.75;;;2.63;;
35552;SDS011;21656;46.054;13.614;2022-09-09T09:28:27;5.45;;;3.00;;
35552;SDS011;21656;46.054;13.614;2022-09-09T09:30:58;6.72;;;3.30;;
35552;SDS011;21656;46.054;13.614;2022-09-09T09:33:34;7.80;;;3.57;;
35552;SDS011;21656;46.054;13.614;2022-09-09T09:36:12;6.45;;;2.95;;
35552;SDS011;21656;46.054;13.614;2022-09-09T09:38:40;6.00;;;2.72;;
35552;SDS011;21656;46.054;13.614;2022-09-09T09:41:37;7.93;;;3.20;;
35552;SDS011;21656;46.054;13.614;2022-09-09T09:44:05;5.28;;;3.30;;
35552;SDS011;21656;46.054;13.614;2022-09-09T09:46:46;5.32;;;3.65;;
35552;SDS011;21656;46.054;13.614;2022-09-09T09:49:11;5.47;;;3.90;;
35552;SDS011;21656;46.054;13.614;2022-09-09T09:51:38;6.70;;;3.75;;
35552;SDS011;21656;46.054;13.614;2022-09-09T09:56:40;7.97;;;3.58;;
35552;SDS011;21656;46.054;13.614;2022-09-09T09:59:18;8.63;;;3.53;;
35552;SDS011;21656;46.054;13.614;2022-09-09T10:01:49;10.90;;;3.28;;
35552;SDS011;21656;46.054;13.614;2022-09-09T10:04:17;7.22;;;3.33;;
35552;SDS011;21656;46.054;13.614;2022-09-09T10:06:45;6.47;;;3.35;;
35552;SDS011;21656;46.054;13.614;2022-09-09T10:12:26;9.82;;;3.00;;
35552;SDS011;21656;46.054;13.614;2022-09-09T10:18:04;4.65;;;3.30;;
35552;SDS011;21656;46.054;13.614;2022-09-09T10:42:55;3.38;;;2.17;;
35552;SDS011;21656;46.054;13.614;2022-09-09T10:58:42;3.28;;;1.67;;
35552;SDS011;21656;46.054;13.614;2022-09-09T11:01:19;3.30;;;1.70;;
35552;SDS011;21656;46.054;13.614;2022-09-09T11:03:56;1.95;;;1.40;;
35552;SDS011;21656;46.054;13.614;2022-09-09T11:06:29;3.30;;;1.67;;
35552;SDS011;21656;46.054;13.614;2022-09-09T11:09:00;2.15;;;1.40;;
35552;SDS011;21656;46.054;13.614;2022-09-09T11:19:04;2.35;;;1.45;;
35552;SDS011;21656;46.054;13.614;2022-09-09T11:21:38;3.17;;;1.17;;
35552;SDS011;21656;46.054;13.614;2022-09-09T11:24:18;2.08;;;1.10;;
35552;SDS011;21656;46.054;13.614;2022-09-09T11:26:55;2.88;;;1.25;;
35552;SDS011;21656;46.054;13.614;2022-09-09T11:40:59;6.78;;;1.20;;
35552;SDS011;21656;46.054;13.614;2022-09-09T11:45:59;5.32;;;3.05;;
35552;SDS011;21656;46.054;13.614;2022-09-09T11:53:55;2.30;;;1.38;;
35552;SDS011;21656;46.054;13.614;2022-09-09T11:56:26;2.15;;;1.20;;
35552;SDS011;21656;46.054;13.614;2022-09-09T11:59:19;3.08;;;1.23;;
35552;SDS011;21656;46.054;13.614;2022-09-09T12:04:28;1.45;;;1.00;;
35552;SDS011;21656;46.054;13.614;2022-09-09T12:06:59;1.35;;;0.88;;
35552;SDS011;21656;46.054;13.614;2022-09-09T12:09:29;3.65;;;1.13;;
35552;SDS011;21656;46.054;13.614;2022-09-09T12:12:07;3.55;;;1.33;;
35552;SDS011;21656;46.054;13.614;2022-09-09T12:19:39;2.35;;;1.00;;
35552;SDS011;21656;46.054;13.614;2022-09-09T12:22:11;1.73;;;1.05;;
35552;SDS011;21656;46.054;13.614;2022-09-09T12:24:42;2.58;;;1.40;;
35552;SDS011;21656;46.054;13.614;2022-09-09T12:27:23;1.80;;;1.23;;
35552;SDS011;21656;46.054;13.614;2022-09-09T12:32:28;1.63;;;1.20;;
35552;SDS011;21656;46.054;13.614;2022-09-09T12:34:55;2.53;;;1.30;;
35552;SDS011;21656;46.054;13.614;2022-09-09T12:37:48;1.50;;;1.02;;
35552;SDS011;21656;46.054;13.614;2022-09-09T12:40:20;2.28;;;1.30;;
35552;SDS011;21656;46.054;13.614;2022-09-09T12:42:47;1.95;;;1.23;;
35552;SDS011;21656;46.054;13.614;2022-09-09T12:45:24;1.58;;;1.13;;
35552;SDS011;21656;46.054;13.614;2022-09-09T12:47:58;1.67;;;1.20;;
35552;SDS011;21656;46.054;13.614;2022-09-09T12:50:30;2.25;;;1.40;;
35552;SDS011;21656;46.054;13.614;2022-09-09T12:53:02;2.10;;;1.30;;
35552;SDS011;21656;46.054;13.614;2022-09-09T12:55:32;1.73;;;1.20;;
35552;SDS011;21656;46.054;13.614;2022-09-09T12:58:01;2.10;;;1.23;;
35552;SDS011;21656;46.054;13.614;2022-09-09T13:00:30;2.20;;;1.20;;
35552;SDS011;21656;46.054;13.614;2022-09-09T13:02:57;2.25;;;1.30;;
35552;SDS011;21656;46.054;13.614;2022-09-09T13:08:06;2.22;;;1.38;;
35552;SDS011;21656;46.054;13.614;2022-09-09T13:10:45;3.15;;;1.20;;
35552;SDS011;21656;46.054;13.614;2022-09-09T13:13:23;1.90;;;1.40;;
35552;SDS011;21656;46.054;13.614;2022-09-09T13:15:54;2.13;;;1.75;;
35552;SDS011;21656;46.054;13.614;2022-09-09T13:18:22;5.10;;;1.48;;
35552;SDS011;21656;46.054;13.614;2022-09-09T13:20:50;2.85;;;1.60;;
35552;SDS011;21656;46.054;13.614;2022-09-09T13:23:17;4.10;;;1.52;;
35552;SDS011;21656;46.054;13.614;2022-09-09T13:26:04;2.15;;;1.60;;
35552;SDS011;21656;46.054;13.614;2022-09-09T13:28:32;1.95;;;1.50;;
35552;SDS011;21656;46.054;13.614;2022-09-09T13:31:03;2.65;;;1.40;;
35552;SDS011;21656;46.054;13.614;2022-09-09T13:33:35;2.00;;;1.45;;
35552;SDS011;21656;46.054;13.614;2022-09-09T13:36:06;1.95;;;1.23;;
35552;SDS011;21656;46.054;13.614;2022-09-09T13:38:35;3.08;;;1.38;;
35552;SDS011;21656;46.054;13.614;2022-09-09T13:41:21;2.42;;;1.58;;
35552;SDS011;21656;46.054;13.614;2022-09-09T13:43:48;2.28;;;1.27;;
35552;SDS011;21656;46.054;13.614;2022-09-09T13:51:38;2.80;;;1.55;;
35552;SDS011;21656;46.054;13.614;2022-09-09T13:54:08;4.20;;;2.03;;
35552;SDS011;21656;46.054;13.614;2022-09-09T13:56:35;4.60;;;1.75;;
35552;SDS011;21656;46.054;13.614;2022-09-09T13:59:02;3.33;;;2.22;;
35552;SDS011;21656;46.054;13.614;2022-09-09T14:01:29;2.85;;;1.42;;
35552;SDS011;21656;46.054;13.614;2022-09-09T14:03:56;1.92;;;1.30;;
35552;SDS011;21656;46.054;13.614;2022-09-09T14:06:22;3.53;;;1.55;;
35552;SDS011;21656;46.054;13.614;2022-09-09T14:08:51;2.15;;;1.10;;
35552;SDS011;21656;46.054;13.614;2022-09-09T14:11:17;3.22;;;1.50;;
35552;SDS011;21656;46.054;13.614;2022-09-09T14:13:43;3.33;;;1.35;;
35552;SDS011;21656;46.054;13.614;2022-09-09T14:16:08;3.60;;;1.40;;
35552;SDS011;21656;46.054;13.614;2022-09-09T14:18:34;3.65;;;2.08;;
35552;SDS011;21656;46.054;13.614;2022-09-09T14:21:00;3.92;;;1.33;;
35552;SDS011;21656;46.054;13.614;2022-09-09T14:23:26;2.33;;;1.60;;
35552;SDS011;21656;46.054;13.614;2022-09-09T14:25:51;2.90;;;1.60;;
35552;SDS011;21656;46.054;13.614;2022-09-09T14:28:17;1.67;;;1.38;;
35552;SDS011;21656;46.054;13.614;2022-09-09T14:30:43;3.50;;;1.55;;
35552;SDS011;21656;46.054;13.614;2022-09-09T14:33:12;1.98;;;1.20;;
35552;SDS011;21656;46.054;13.614;2022-09-09T14:35:39;1.80;;;1.40;;
35552;SDS011;21656;46.054;13.614;2022-09-09T14:38:06;2.65;;;1.50;;
35552;SDS011;21656;46.054;13.614;2022-09-09T14:40:33;3.95;;;1.50;;
35552;SDS011;21656;46.054;13.614;2022-09-09T14:43:00;2.22;;;1.40;;
35552;SDS011;21656;46.054;13.614;2022-09-09T14:45:25;4.35;;;1.55;;
35552;SDS011;21656;46.054;13.614;2022-09-09T14:47:51;2.58;;;1.30;;
35552;SDS011;21656;46.054;13.614;2022-09-09T14:50:18;4.20;;;1.40;;
35552;SDS011;21656;46.054;13.614;2022-09-09T14:52:44;6.45;;;2.25;;
35552;SDS011;21656;46.054;13.614;2022-09-09T14:55:09;6.97;;;2.20;;
35552;SDS011;21656;46.054;13.614;2022-09-09T14:57:36;5.05;;;2.00;;
35552;SDS011;21656;46.054;13.614;2022-09-09T15:00:05;10.43;;;3.30;;
35552;SDS011;21656;46.054;13.614;2022-09-09T15:02:32;6.35;;;3.00;;
35552;SDS011;21656;46.054;13.614;2022-09-09T15:04:58;8.93;;;3.00;;
35552;SDS011;21656;46.054;13.614;2022-09-09T15:07:24;6.90;;;2.75;;
35552;SDS011;21656;46.054;13.614;2022-09-09T15:09:49;7.63;;;3.20;;
35552;SDS011;21656;46.054;13.614;2022-09-09T15:12:15;6.93;;;2.95;;
35552;SDS011;21656;46.054;13.614;2022-09-09T15:14:43;5.72;;;2.55;;
35552;SDS011;21656;46.054;13.614;2022-09-09T15:17:09;5.88;;;2.28;;
35552;SDS011;21656;46.054;13.614;2022-09-09T15:19:36;4.70;;;2.38;;
35552;SDS011;21656;46.054;13.614;2022-09-09T15:22:02;4.65;;;2.28;;
35552;SDS011;21656;46.054;13.614;2022-09-09T15:24:29;5.88;;;2.83;;
35552;SDS011;21656;46.054;13.614;2022-09-09T15:26:55;8.38;;;4.20;;
35552;SDS011;21656;46.054;13.614;2022-09-09T15:29:21;6.25;;;3.75;;
35552;SDS011;21656;46.054;13.614;2022-09-09T15:31:46;14.52;;;3.38;;
35552;SDS011;21656;46.054;13.614;2022-09-09T15:34:12;6.40;;;2.80;;
35552;SDS011;21656;46.054;13.614;2022-09-09T15:36:45;4.57;;;2.20;;
35552;SDS011;21656;46.054;13.614;2022-09-09T15:39:14;3.85;;;2.40;;
35552;SDS011;21656;46.054;13.614;2022-09-09T15:41:42;5.70;;;2.50;;
35552;SDS011;21656;46.054;13.614;2022-09-09T15:44:09;6.38;;;2.45;;
35552;SDS011;21656;46.054;13.614;2022-09-09T15:46:37;8.65;;;4.90;;
35552;SDS011;21656;46.054;13.614;2022-09-09T15:49:07;7.07;;;3.85;;
35552;SDS011;21656;46.054;13.614;2022-09-09T15:51:44;4.32;;;2.42;;
35552;SDS011;21656;46.054;13.614;2022-09-09T15:54:14;4.60;;;2.25;;
35552;SDS011;21656;46.054;13.614;2022-09-09T15:56:45;6.88;;;2.63;;
35552;SDS011;21656;46.054;13.614;2022-09-09T15:59:15;6.75;;;2.05;;
35552;SDS011;21656;46.054;13.614;2022-09-09T16:01:41;5.72;;;2.80;;
35552;SDS011;21656;46.054;13.614;2022-09-09T16:04:07;6.82;;;2.67;;
35552;SDS011;21656;46.054;13.614;2022-09-09T16:06:33;6.00;;;2.38;;
35552;SDS011;21656;46.054;13.614;2022-09-09T16:08:58;5.13;;;2.50;;
35552;SDS011;21656;46.054;13.614;2022-09-09T16:11:28;4.40;;;2.47;;
35552;SDS011;21656;46.054;13.614;2022-09-09T16:13:57;4.85;;;2.20;;
35552;SDS011;21656;46.054;13.614;2022-09-09T16:16:24;9.73;;;2.78;;
35552;SDS011;21656;46.054;13.614;2022-09-09T16:18:53;5.55;;;2.80;;
35552;SDS011;21656;46.054;13.614;2022-09-09T16:21:21;6.68;;;3.75;;
35552;SDS011;21656;46.054;13.614;2022-09-09T16:23:49;2.30;;;1.48;;
35552;SDS011;21656;46.054;13.614;2022-09-09T16:26:17;2.70;;;1.48;;
35552;SDS011;21656;46.054;13.614;2022-09-09T16:28:43;2.72;;;1.88;;
35552;SDS011;21656;46.054;13.614;2022-09-09T16:31:10;3.70;;;2.53;;
35552;SDS011;21656;46.054;13.614;2022-09-09T16:33:38;5.63;;;2.20;;
35552;SDS011;21656;46.054;13.614;2022-09-09T16:36:07;4.78;;;2.03;;
35552;SDS011;21656;46.054;13.614;2022-09-09T16:38:35;5.15;;;2.15;;
35552;SDS011;21656;46.054;13.614;2022-09-09T16:41:01;4.63;;;2.22;;
35552;SDS011;21656;46.054;13.614;2022-09-09T16:43:29;3.78;;;2.15;;
35552;SDS011;21656;46.054;13.614;2022-09-09T16:45:55;3.95;;;1.65;;
35552;SDS011;21656;46.054;13.614;2022-09-09T16:48:21;3.85;;;1.60;;
35552;SDS011;21656;46.054;13.614;2022-09-09T16:50:46;1.98;;;1.60;;
35552;SDS011;21656;46.054;13.614;2022-09-09T16:53:11;4.50;;;2.20;;
35552;SDS011;21656;46.054;13.614;2022-09-09T16:55:40;4.03;;;1.80;;
35552;SDS011;21656;46.054;13.614;2022-09-09T16:58:07;2.35;;;1.77;;
35552;SDS011;21656;46.054;13.614;2022-09-09T17:00:33;5.10;;;3.00;;
35552;SDS011;21656;46.054;13.614;2022-09-09T17:02:59;5.70;;;2.28;;
35552;SDS011;21656;46.054;13.614;2022-09-09T17:05:25;3.90;;;1.98;;
35552;SDS011;21656;46.054;13.614;2022-09-09T17:07:50;4.07;;;1.92;;
35552;SDS011;21656;46.054;13.614;2022-09-09T17:10:16;3.92;;;2.10;;
35552;SDS011;21656;46.054;13.614;2022-09-09T17:12:42;1.92;;;1.73;;
35552;SDS011;21656;46.054;13.614;2022-09-09T17:15:07;4.03;;;1.90;;
35552;SDS011;21656;46.054;13.614;2022-09-09T17:17:34;2.92;;;1.88;;
35552;SDS011;21656;46.054;13.614;2022-09-09T17:20:00;3.33;;;2.13;;
35552;SDS011;21656;46.054;13.614;2022-09-09T17:22:27;2.53;;;1.83;;
35552;SDS011;21656;46.054;13.614;2022-09-09T17:24:53;2.90;;;2.10;;
35552;SDS011;21656;46.054;13.614;2022-09-09T17:27:19;3.38;;;1.67;;
35552;SDS011;21656;46.054;13.614;2022-09-09T17:29:45;4.25;;;2.08;;
35552;SDS011;21656;46.054;13.614;2022-09-09T17:32:10;3.15;;;1.98;;
35552;SDS011;21656;46.054;13.614;2022-09-09T17:34:36;3.50;;;1.58;;